createdAt,value
2022-08-25T00:00:21.375Z,83.57
2022-08-25T00:03:05.936Z,83.90
2022-08-25T00:05:35.039Z,83.91
2022-08-25T00:08:05.959Z,84.01
2022-08-25T00:10:38.607Z,84.13
2022-08-25T00:13:07.538Z,84.07
2022-08-25T00:15:36.540Z,84.35
2022-08-25T00:18:05.418Z,84.24
2022-08-25T00:20:48.881Z,84.35
2022-08-25T00:23:18.011Z,84.05
2022-08-25T00:25:47.150Z,84.38
2022-08-25T00:28:16.435Z,84.51
2022-08-25T00:30:45.295Z,84.66
2022-08-25T00:33:14.231Z,84.52
2022-08-25T00:35:43.543Z,84.66
2022-08-25T00:38:12.837Z,84.70
2022-08-25T00:40:42.744Z,85.04
2022-08-25T00:43:12.317Z,84.96
2022-08-25T00:45:41.312Z,85.27
2022-08-25T00:48:10.452Z,85.30
2022-08-25T00:50:39.025Z,85.02
2022-08-25T00:53:09.250Z,84.81
2022-08-25T00:55:40.352Z,85.43
2022-08-25T00:58:14.536Z,85.40
2022-08-25T01:00:48.920Z,85.60
2022-08-25T01:03:19.529Z,85.20
2022-08-25T01:05:48.993Z,85.77
2022-08-25T01:08:20.620Z,85.55
2022-08-25T01:10:50.828Z,85.31
2022-08-25T01:13:24.316Z,85.71
2022-08-25T01:15:55.539Z,85.75
2022-08-25T01:18:25.302Z,86.04
2022-08-25T01:20:54.658Z,86.11
2022-08-25T01:23:24.058Z,86.09
2022-08-25T01:26:01.516Z,85.93
2022-08-25T01:28:30.661Z,85.81
2022-08-25T01:30:59.233Z,86.39
2022-08-25T01:33:27.864Z,86.49
2022-08-25T01:35:56.244Z,86.60
2022-08-25T01:38:24.679Z,86.30
2022-08-25T01:40:53.316Z,86.34
2022-08-25T01:43:31.283Z,86.55
2022-08-25T01:45:59.917Z,86.64
2022-08-25T01:48:28.588Z,86.68
2022-08-25T01:50:57.086Z,86.68
2022-08-25T01:53:29.605Z,86.67
2022-08-25T01:56:10.419Z,86.65
2022-08-25T01:58:42.372Z,86.75
2022-08-25T02:01:15.368Z,86.82
2022-08-25T02:03:48.086Z,86.68
2022-08-25T02:06:27.657Z,86.74
2022-08-25T02:09:01.391Z,86.72
2022-08-25T02:11:30.262Z,86.76
2022-08-25T02:14:00.401Z,86.81
2022-08-25T02:16:36.952Z,86.90
2022-08-25T02:19:08.048Z,86.66
2022-08-25T02:21:37.171Z,86.84
2022-08-25T02:24:06.714Z,86.80
2022-08-25T02:26:35.962Z,86.83
2022-08-25T02:29:04.804Z,86.88
2022-08-25T02:31:34.281Z,86.96
2022-08-25T02:34:04.126Z,86.96
2022-08-25T02:36:32.975Z,86.73
2022-08-25T02:39:02.092Z,86.81
2022-08-25T02:41:33.018Z,86.69
2022-08-25T02:44:03.312Z,86.69
2022-08-25T02:46:32.580Z,86.75
2022-08-25T02:49:01.392Z,86.89
2022-08-25T02:51:31.375Z,86.67
2022-08-25T02:54:02.127Z,86.55
2022-08-25T02:56:32.101Z,86.65
2022-08-25T02:59:02.248Z,86.70
2022-08-25T03:01:32.530Z,86.78
2022-08-25T03:04:01.968Z,86.84
2022-08-25T03:06:31.064Z,86.95
2022-08-25T03:09:00.912Z,86.85
2022-08-25T03:11:31.230Z,86.98
2022-08-25T03:13:59.710Z,86.82
2022-08-25T03:16:28.325Z,86.95
2022-08-25T03:18:58.959Z,87.05
2022-08-25T03:21:29.553Z,86.96
2022-08-25T03:23:58.961Z,87.05
2022-08-25T03:26:45.826Z,87.41
2022-08-25T03:29:14.905Z,87.26
2022-08-25T03:31:44.232Z,87.14
2022-08-25T03:34:13.164Z,87.62
2022-08-25T03:36:42.057Z,87.67
2022-08-25T03:39:10.558Z,87.86
2022-08-25T03:41:39.501Z,87.93
2022-08-25T03:44:09.823Z,88.18
2022-08-25T03:46:41.396Z,88.16
2022-08-25T03:49:12.630Z,88.13
2022-08-25T03:51:43.744Z,88.07
2022-08-25T03:54:13.258Z,88.09
2022-08-25T03:56:42.730Z,87.99
2022-08-25T03:59:11.162Z,87.91
2022-08-25T04:01:42.206Z,87.81
2022-08-25T04:04:12.171Z,87.86
2022-08-25T04:06:42.977Z,87.86
2022-08-25T04:09:12.322Z,87.80
2022-08-25T04:11:42.590Z,87.79
2022-08-25T04:14:13.782Z,87.26
2022-08-25T04:16:45.973Z,87.20
2022-08-25T04:19:14.470Z,87.37
2022-08-25T04:21:43.050Z,87.15
2022-08-25T04:24:13.388Z,87.36
2022-08-25T04:26:47.537Z,87.41
2022-08-25T04:29:18.430Z,87.35
2022-08-25T04:31:50.444Z,87.35
2022-08-25T04:34:30.186Z,87.19
2022-08-25T04:37:01.133Z,87.20
2022-08-25T04:39:30.309Z,86.80
2022-08-25T04:42:00.035Z,86.83
2022-08-25T04:44:29.696Z,86.63
2022-08-25T04:46:58.725Z,86.52
2022-08-25T04:49:28.234Z,86.20
2022-08-25T04:51:56.980Z,86.16
2022-08-25T04:54:27.462Z,86.02
2022-08-25T04:56:58.243Z,85.31
2022-08-25T04:59:30.155Z,85.09
2022-08-25T05:02:01.664Z,85.07
2022-08-25T05:04:31.350Z,84.93
2022-08-25T05:07:01.089Z,84.55
2022-08-25T05:09:32.343Z,83.80
2022-08-25T05:12:02.962Z,83.28
2022-08-25T05:14:32.623Z,82.77
2022-08-25T05:17:01.466Z,82.61
2022-08-25T05:19:30.010Z,81.77
2022-08-25T05:21:58.545Z,80.68
2022-08-25T05:24:27.435Z,78.50
2022-08-25T05:26:57.173Z,76.15
2022-08-25T05:29:26.497Z,73.64
2022-08-25T05:31:55.096Z,72.50
2022-08-25T05:34:24.411Z,71.04
2022-08-25T05:36:53.979Z,70.69
2022-08-25T05:39:22.656Z,70.23
2022-08-25T05:41:52.399Z,70.57
2022-08-25T05:44:21.497Z,70.51
2022-08-25T05:46:51.009Z,71.00
2022-08-25T05:49:19.921Z,71.19
2022-08-25T05:51:48.518Z,71.31
2022-08-25T05:54:16.960Z,70.86
2022-08-25T05:56:45.607Z,71.06
2022-08-25T05:59:14.172Z,71.45
2022-08-25T06:02:01.532Z,72.06
2022-08-25T06:04:30.074Z,71.91
2022-08-25T06:06:58.553Z,72.42
2022-08-25T06:09:27.028Z,72.70
2022-08-25T06:11:55.605Z,72.28
2022-08-25T06:14:24.628Z,71.71
2022-08-25T06:16:53.146Z,71.88
2022-08-25T06:19:23.006Z,72.01
2022-08-25T06:21:54.865Z,70.84
2022-08-25T06:24:23.966Z,70.22
2022-08-25T06:26:52.703Z,70.53
2022-08-25T06:29:21.759Z,70.39
2022-08-25T06:31:50.683Z,70.35
2022-08-25T06:34:19.301Z,69.89
2022-08-25T06:36:48.761Z,70.05
2022-08-25T06:39:18.020Z,69.81
2022-08-25T06:41:50.142Z,69.98
2022-08-25T06:44:19.126Z,69.81
2022-08-25T06:46:47.587Z,69.65
2022-08-25T06:49:16.151Z,68.84
2022-08-25T06:51:45.292Z,69.05
2022-08-25T06:54:13.835Z,68.86
2022-08-25T06:56:42.967Z,68.42
2022-08-25T06:59:12.268Z,68.64
2022-08-25T07:01:40.945Z,67.94
2022-08-25T07:04:13.143Z,70.09
2022-08-25T07:06:42.483Z,68.75
2022-08-25T07:09:12.652Z,69.10
2022-08-25T07:11:41.904Z,67.21
2022-08-25T07:14:12.688Z,67.31
2022-08-25T07:16:48.534Z,66.38
2022-08-25T07:19:20.392Z,67.17
2022-08-25T07:21:51.540Z,67.01
2022-08-25T07:24:21.490Z,66.16
2022-08-25T07:26:50.377Z,67.51
2022-08-25T07:29:31.879Z,68.52
2022-08-25T07:32:02.453Z,66.97
2022-08-25T07:34:52.293Z,66.11
2022-08-25T07:40:14.559Z,65.87
2022-08-25T07:42:43.737Z,65.45
2022-08-25T07:45:14.033Z,65.24
2022-08-25T07:47:45.974Z,64.24
2022-08-25T07:50:14.723Z,63.98
2022-08-25T07:52:43.222Z,63.12
2022-08-25T07:55:12.383Z,62.63
2022-08-25T07:57:49.860Z,63.36
2022-08-25T08:00:23.119Z,63.62
2022-08-25T08:02:53.377Z,63.34
2022-08-25T08:05:23.847Z,61.65
2022-08-25T08:07:52.771Z,62.64
2022-08-25T08:10:48.069Z,60.88
2022-08-25T08:13:13.488Z,61.34
2022-08-25T08:15:47.312Z,60.59
2022-08-25T08:18:15.989Z,60.45
2022-08-25T08:20:45.442Z,58.77
2022-08-25T08:23:14.941Z,58.40
2022-08-25T08:25:43.923Z,59.95
2022-08-25T08:28:12.427Z,58.73
2022-08-25T08:30:53.450Z,58.46
2022-08-25T08:33:24.530Z,59.49
2022-08-25T08:36:04.850Z,58.08
2022-08-25T08:38:34.687Z,58.07
2022-08-25T08:42:07.610Z,56.22
2022-08-25T08:44:40.369Z,53.19
2022-08-25T08:47:21.402Z,51.92
2022-08-25T08:50:02.184Z,50.43
2022-08-25T08:52:41.006Z,48.44
2022-08-25T08:55:19.047Z,47.61
2022-08-25T08:57:52.429Z,45.58
2022-08-25T09:00:25.029Z,45.05
2022-08-25T09:03:00.927Z,42.95
2022-08-25T09:05:43.802Z,42.27
2022-08-25T09:08:20.476Z,41.40
2022-08-25T09:11:01.158Z,41.06
2022-08-25T09:13:47.488Z,44.44
2022-08-25T09:16:43.398Z,41.88
2022-08-25T09:19:31.030Z,42.73
2022-08-25T09:22:34.994Z,41.78
2022-08-25T09:25:11.033Z,41.12
2022-08-25T09:27:45.712Z,38.03
2022-08-25T09:30:17.644Z,38.28
2022-08-25T09:32:52.463Z,37.13
2022-08-25T09:35:25.566Z,36.43
2022-08-25T09:37:59.606Z,38.22
2022-08-25T09:40:31.155Z,36.63
2022-08-25T09:43:02.749Z,37.33
2022-08-25T09:45:37.709Z,35.98
2022-08-25T09:48:22.530Z,37.09
2022-08-25T09:50:54.618Z,36.74
2022-08-25T09:53:23.619Z,36.62
2022-08-25T09:56:00.498Z,37.40
2022-08-25T09:58:29.121Z,33.41
2022-08-25T10:01:13.013Z,35.48
2022-08-25T10:04:00.003Z,32.83
2022-08-25T10:06:33.668Z,35.24
2022-08-25T10:09:06.000Z,34.18
2022-08-25T10:11:42.082Z,34.06
2022-08-25T10:14:26.300Z,34.67
2022-08-25T10:17:13.502Z,33.29
2022-08-25T10:19:42.843Z,33.07
2022-08-25T10:22:21.111Z,32.16
2022-08-25T10:24:49.852Z,32.99
2022-08-25T10:27:28.690Z,32.77
2022-08-25T10:30:18.598Z,32.85
2022-08-25T10:33:03.547Z,29.03
2022-08-25T10:35:41.054Z,30.83
2022-08-25T10:38:23.939Z,30.31
2022-08-25T10:41:03.442Z,28.89
2022-08-25T10:43:37.178Z,28.84
2022-08-25T10:46:14.585Z,28.73
2022-08-25T10:48:57.810Z,26.68
2022-08-25T10:51:51.161Z,27.58
2022-08-25T10:54:31.846Z,27.83
2022-08-25T10:57:10.893Z,29.39
2022-08-25T10:59:57.721Z,28.44
2022-08-25T11:03:11.254Z,27.75
2022-08-25T11:05:46.655Z,29.68
2022-08-25T11:08:32.082Z,27.05
2022-08-25T11:11:08.021Z,27.55
2022-08-25T11:13:46.442Z,27.49
2022-08-25T11:16:19.262Z,28.45
2022-08-25T11:18:56.005Z,28.26
2022-08-25T11:21:34.891Z,28.44
2022-08-25T11:24:15.781Z,27.92
2022-08-25T11:26:49.604Z,28.09
2022-08-25T11:29:21.645Z,27.69
2022-08-25T11:31:53.293Z,31.35
2022-08-25T11:34:22.846Z,27.71
2022-08-25T11:36:54.660Z,26.95
2022-08-25T11:39:37.844Z,27.01
2022-08-25T11:42:21.256Z,27.02
2022-08-25T11:45:01.880Z,27.53
2022-08-25T11:47:47.600Z,26.83
2022-08-25T11:50:30.700Z,27.73
2022-08-25T11:53:15.211Z,27.08
2022-08-25T11:55:50.723Z,26.36
2022-08-25T11:58:42.065Z,25.52
2022-08-25T12:01:32.733Z,25.07
2022-08-25T12:04:33.238Z,26.11
2022-08-25T12:07:22.630Z,25.53
2022-08-25T12:10:20.231Z,26.18
2022-08-25T12:13:26.201Z,25.84
2022-08-25T12:16:00.067Z,25.83
2022-08-25T12:18:45.570Z,26.60
2022-08-25T12:21:29.003Z,25.56
2022-08-25T12:24:16.915Z,26.52
2022-08-25T12:26:56.608Z,25.28
2022-08-25T12:29:38.043Z,26.65
2022-08-25T12:32:29.408Z,25.34
2022-08-25T12:35:22.418Z,25.92
2022-08-25T12:37:58.495Z,26.14
2022-08-25T12:40:32.260Z,26.26
2022-08-25T12:43:13.675Z,27.63
2022-08-25T12:45:49.924Z,28.25
2022-08-25T12:48:41.081Z,25.85
2022-08-25T12:51:18.008Z,26.77
2022-08-25T12:53:50.879Z,26.70
2022-08-25T12:56:39.852Z,26.99
2022-08-25T12:59:19.329Z,26.54
2022-08-25T13:02:08.520Z,26.54
2022-08-25T13:05:11.269Z,27.38
2022-08-25T13:07:56.783Z,26.94
2022-08-25T13:10:45.200Z,26.22
2022-08-25T13:13:23.867Z,26.35
2022-08-25T13:16:01.367Z,26.75
2022-08-25T13:18:31.792Z,27.13
2022-08-25T13:21:11.018Z,27.54
2022-08-25T13:23:42.931Z,27.65
2022-08-25T13:26:15.258Z,27.92
2022-08-25T13:28:50.551Z,27.92
2022-08-25T13:31:21.834Z,28.80
2022-08-25T13:33:56.012Z,28.22
2022-08-25T13:36:51.063Z,28.14
2022-08-25T13:39:45.592Z,27.79
2022-08-25T13:42:16.684Z,28.14
2022-08-25T13:44:51.991Z,27.61
2022-08-25T13:47:43.325Z,27.70
2022-08-25T13:50:30.742Z,28.60
2022-08-25T13:53:02.731Z,28.74
2022-08-25T13:55:38.273Z,28.47
2022-08-25T13:58:24.755Z,28.59
2022-08-25T14:01:23.624Z,28.13
2022-08-25T14:04:31.599Z,28.11
2022-08-25T14:07:12.305Z,28.76
2022-08-25T14:09:48.460Z,27.51
2022-08-25T14:12:33.614Z,27.78
2022-08-25T14:15:07.923Z,28.22
2022-08-25T14:17:40.813Z,28.14
2022-08-25T14:20:28.150Z,29.35
2022-08-25T14:22:59.443Z,29.10
2022-08-25T14:25:31.720Z,28.49
2022-08-25T14:28:06.630Z,28.19
2022-08-25T14:30:48.951Z,28.80
2022-08-25T14:33:19.735Z,28.14
2022-08-25T14:35:51.296Z,28.49
2022-08-25T14:38:20.662Z,28.45
2022-08-25T14:40:49.569Z,28.46
2022-08-25T14:43:23.754Z,27.98
2022-08-25T14:45:53.338Z,27.86
2022-08-25T14:48:25.936Z,28.71
2022-08-25T14:50:56.574Z,29.00
2022-08-25T14:53:26.325Z,29.39
2022-08-25T14:55:55.673Z,29.59
2022-08-25T14:58:33.851Z,29.75
2022-08-25T15:01:05.624Z,29.31
2022-08-25T15:03:38.024Z,28.31
2022-08-25T15:06:07.214Z,29.07
2022-08-25T15:08:54.059Z,30.31
2022-08-25T15:11:22.630Z,28.83
2022-08-25T15:13:51.142Z,29.75
2022-08-25T15:16:24.543Z,30.13
2022-08-25T15:19:06.729Z,30.54
2022-08-25T15:21:36.126Z,29.85
2022-08-25T15:24:06.537Z,30.07
2022-08-25T15:26:42.120Z,30.94
2022-08-25T15:29:11.028Z,31.49
2022-08-25T15:31:39.865Z,30.80
2022-08-25T15:34:11.924Z,30.08
2022-08-25T15:36:41.611Z,29.54
2022-08-25T15:39:11.219Z,30.59
2022-08-25T15:41:39.794Z,30.16
2022-08-25T15:44:11.171Z,30.24
2022-08-25T15:46:41.870Z,30.00
2022-08-25T15:49:15.832Z,30.34
2022-08-25T15:51:52.425Z,29.72
2022-08-25T15:54:22.011Z,30.22
2022-08-25T15:56:51.708Z,29.83
2022-08-25T15:59:21.864Z,30.20
2022-08-25T16:01:52.879Z,30.14
2022-08-25T16:04:23.536Z,30.69
2022-08-25T16:06:52.592Z,30.77
2022-08-25T16:09:22.743Z,30.53
2022-08-25T16:11:57.068Z,32.32
2022-08-25T16:14:27.593Z,30.97
2022-08-25T16:16:58.280Z,31.00
2022-08-25T16:19:28.617Z,30.52
2022-08-25T16:21:58.264Z,30.38
2022-08-25T16:24:26.919Z,30.65
2022-08-25T16:27:11.442Z,30.73
2022-08-25T16:29:42.041Z,30.96
2022-08-25T16:32:13.394Z,30.88
2022-08-25T16:34:44.240Z,32.23
2022-08-25T16:37:13.471Z,31.91
2022-08-25T16:39:44.968Z,32.79
2022-08-25T16:42:13.919Z,31.54
2022-08-25T16:44:42.950Z,32.10
2022-08-25T16:47:13.957Z,32.15
2022-08-25T16:49:43.469Z,32.68
2022-08-25T16:52:31.275Z,32.67
2022-08-25T16:55:12.508Z,35.02
2022-08-25T16:57:44.852Z,35.50
2022-08-25T17:00:16.636Z,36.34
2022-08-25T17:02:45.631Z,36.51
2022-08-25T17:05:14.450Z,36.92
2022-08-25T17:07:43.467Z,36.54
2022-08-25T17:10:12.550Z,37.91
2022-08-25T17:12:41.725Z,36.07
2022-08-25T17:15:10.844Z,38.21
2022-08-25T17:17:39.417Z,38.69
2022-08-25T17:20:09.488Z,38.49
2022-08-25T17:22:37.935Z,38.79
2022-08-25T17:25:09.077Z,37.15
2022-08-25T17:27:37.565Z,37.72
2022-08-25T17:30:08.564Z,39.06
2022-08-25T17:32:37.172Z,40.65
2022-08-25T17:35:08.324Z,40.56
2022-08-25T17:37:37.315Z,41.47
2022-08-25T17:40:09.143Z,39.94
2022-08-25T17:42:40.295Z,40.26
2022-08-25T17:45:09.648Z,40.22
2022-08-25T17:47:38.132Z,40.29
2022-08-25T17:50:08.247Z,40.97
2022-08-25T17:52:36.763Z,41.62
2022-08-25T17:55:08.628Z,42.07
2022-08-25T17:57:41.109Z,43.12
2022-08-25T18:00:13.508Z,42.38
2022-08-25T18:02:43.237Z,43.56
2022-08-25T18:05:12.900Z,44.10
2022-08-25T18:07:43.944Z,44.42
2022-08-25T18:10:13.294Z,45.24
2022-08-25T18:12:44.624Z,45.95
2022-08-25T18:15:14.816Z,46.59
2022-08-25T18:17:43.985Z,46.85
2022-08-25T18:20:14.646Z,47.40
2022-08-25T18:22:44.095Z,47.73
2022-08-25T18:25:15.754Z,48.60
2022-08-25T18:27:45.619Z,49.06
2022-08-25T18:30:14.825Z,48.81
2022-08-25T18:32:43.508Z,49.23
2022-08-25T18:35:12.104Z,49.88
2022-08-25T18:37:59.462Z,49.83
2022-08-25T18:40:28.506Z,50.09
2022-08-25T18:42:59.844Z,50.66
2022-08-25T18:45:31.729Z,51.25
2022-08-25T18:48:00.782Z,51.68
2022-08-25T18:50:33.617Z,52.53
2022-08-25T18:53:03.308Z,52.58
2022-08-25T18:55:34.966Z,53.39
2022-08-25T18:58:05.433Z,53.55
2022-08-25T19:00:36.847Z,52.59
2022-08-25T19:03:05.876Z,52.71
2022-08-25T19:05:38.631Z,53.79
2022-08-25T19:08:11.078Z,53.65
2022-08-25T19:10:41.667Z,53.44
2022-08-25T19:13:10.875Z,53.43
2022-08-25T19:15:41.387Z,52.71
2022-08-25T19:18:11.014Z,53.98
2022-08-25T19:20:40.370Z,55.00
2022-08-25T19:23:10.424Z,54.09
2022-08-25T19:25:41.654Z,54.02
2022-08-25T19:28:12.884Z,54.31
2022-08-25T19:30:49.983Z,53.99
2022-08-25T19:33:37.124Z,54.35
2022-08-25T19:36:09.190Z,55.47
2022-08-25T19:38:39.108Z,55.67
2022-08-25T19:41:14.041Z,55.77
2022-08-25T19:43:56.222Z,56.85
2022-08-25T19:46:32.602Z,55.93
2022-08-25T19:49:07.215Z,56.42
2022-08-25T19:51:39.007Z,57.03
2022-08-25T19:54:09.156Z,57.48
2022-08-25T19:56:44.048Z,57.11
2022-08-25T19:59:26.252Z,57.43
2022-08-25T20:01:55.072Z,58.30
2022-08-25T20:04:24.735Z,57.82
2022-08-25T20:06:55.359Z,57.70
2022-08-25T20:09:38.829Z,58.25
2022-08-25T20:12:11.185Z,58.79
2022-08-25T20:14:40.347Z,59.02
2022-08-25T20:17:23.189Z,59.18
2022-08-25T20:19:55.355Z,59.74
2022-08-25T20:22:26.803Z,59.46
2022-08-25T20:24:58.469Z,60.07
2022-08-25T20:27:32.244Z,59.72
2022-08-25T20:30:02.544Z,59.29
2022-08-25T20:32:33.042Z,60.48
2022-08-25T20:35:03.918Z,60.44
2022-08-25T20:37:33.781Z,60.56
2022-08-25T20:40:03.848Z,60.99
2022-08-25T20:42:32.306Z,61.28
2022-08-25T20:45:01.048Z,62.08
2022-08-25T20:47:29.691Z,61.67
2022-08-25T20:50:00.371Z,61.96
2022-08-25T20:52:32.107Z,61.75
2022-08-25T20:55:01.227Z,61.77
2022-08-25T20:57:29.867Z,62.10
2022-08-25T20:59:59.948Z,61.39
2022-08-25T21:02:30.009Z,63.17
2022-08-25T21:04:58.687Z,61.92
2022-08-25T21:07:27.411Z,62.42
2022-08-25T21:09:56.759Z,62.71
2022-08-25T21:12:25.243Z,62.48
2022-08-25T21:14:55.757Z,62.72
2022-08-25T21:17:25.801Z,63.09
2022-08-25T21:19:54.348Z,63.02
2022-08-25T21:22:22.925Z,63.07
2022-08-25T21:24:51.668Z,62.68
2022-08-25T21:27:20.186Z,63.76
2022-08-25T21:29:54.417Z,63.73
2022-08-25T21:32:24.409Z,63.74
2022-08-25T21:34:53.749Z,63.85
2022-08-25T21:37:22.500Z,63.53
2022-08-25T21:39:51.548Z,64.03
2022-08-25T21:42:22.646Z,64.21
2022-08-25T21:51:05.013Z,64.61
2022-08-25T21:53:35.142Z,65.31
2022-08-25T21:56:05.520Z,65.37
2022-08-25T21:58:35.618Z,65.67
2022-08-25T22:01:06.608Z,66.37
2022-08-25T22:03:41.702Z,66.54
2022-08-25T22:06:12.272Z,66.92
2022-08-25T22:08:42.308Z,66.65
2022-08-25T22:11:14.653Z,66.27
2022-08-25T22:13:47.493Z,66.28
2022-08-25T22:16:21.445Z,66.63
2022-08-25T22:18:51.167Z,66.66
2022-08-25T22:21:22.000Z,66.54
2022-08-25T22:23:50.907Z,66.78
2022-08-25T22:26:22.130Z,66.76
2022-08-25T22:28:51.182Z,66.51
2022-08-25T22:31:20.910Z,66.38
2022-08-25T22:33:50.368Z,66.51
2022-08-25T22:36:24.216Z,67.34
2022-08-25T22:38:53.768Z,67.29
2022-08-25T22:41:24.340Z,67.71
2022-08-25T22:43:56.109Z,67.92
2022-08-25T22:46:27.896Z,68.41
2022-08-25T22:48:57.217Z,69.59
2022-08-25T22:51:29.874Z,69.09
2022-08-25T22:53:59.884Z,68.80
2022-08-25T22:56:31.360Z,69.14
2022-08-25T22:59:03.535Z,69.31
2022-08-25T23:01:33.859Z,69.07
2022-08-25T23:04:04.078Z,68.91
2022-08-25T23:06:33.825Z,69.23
2022-08-25T23:09:05.071Z,69.41
2022-08-25T23:11:35.110Z,69.85
2022-08-25T23:14:06.028Z,69.87
2022-08-25T23:16:34.544Z,70.08
2022-08-25T23:19:03.676Z,69.98
2022-08-25T23:21:52.574Z,70.05
2022-08-25T23:24:29.234Z,70.78
2022-08-25T23:27:00.916Z,70.63
2022-08-25T23:29:29.927Z,70.99
2022-08-25T23:31:59.337Z,70.87
2022-08-25T23:34:28.595Z,71.60
2022-08-25T23:36:57.826Z,72.34
2022-08-25T23:39:26.249Z,73.15
2022-08-25T23:41:54.744Z,72.15
2022-08-25T23:44:25.617Z,72.20
2022-08-25T23:46:54.674Z,72.05
2022-08-25T23:49:24.289Z,72.14
2022-08-25T23:51:56.019Z,72.36
2022-08-25T23:54:30.946Z,72.39
2022-08-25T23:57:01.517Z,72.33
2022-08-25T23:59:30.213Z,72.58
